createdAt,value
2023-03-04T00:02:25.463Z,-0.57
2023-03-04T00:04:52.234Z,-0.44
2023-03-04T00:07:18.978Z,-0.55
2023-03-04T00:09:46.247Z,-0.78
2023-03-04T00:12:13.303Z,-0.71
2023-03-04T00:14:39.952Z,-0.78
2023-03-04T00:17:07.083Z,-0.75
2023-03-04T00:19:35.042Z,-0.94
2023-03-04T00:22:04.618Z,-0.90
2023-03-04T00:24:31.860Z,-1.04
2023-03-04T00:26:58.411Z,-0.88
2023-03-04T00:29:25.127Z,-0.85
2023-03-04T00:31:51.667Z,-0.90
2023-03-04T00:34:18.260Z,-0.77
2023-03-04T00:36:44.810Z,-0.82
2023-03-04T00:39:13.531Z,-0.92
2023-03-04T00:41:40.128Z,-1.19
2023-03-04T00:44:06.908Z,-1.15
2023-03-04T00:46:33.410Z,-1.24
2023-03-04T00:48:59.969Z,-1.11
2023-03-04T00:51:26.742Z,-1.36
2023-03-04T00:53:54.199Z,-1.42
2023-03-04T00:56:20.848Z,-1.40
2023-03-04T00:58:47.314Z,-1.14
2023-03-04T01:01:14.082Z,-1.21
2023-03-04T01:03:42.417Z,-1.06
2023-03-04T01:06:09.119Z,-1.15
2023-03-04T01:08:36.240Z,-1.27
2023-03-04T01:11:02.964Z,-1.16
2023-03-04T01:13:29.680Z,-1.26
2023-03-04T01:15:57.574Z,-1.40
2023-03-04T01:18:24.610Z,-1.36
2023-03-04T01:20:51.129Z,-1.41
2023-03-04T01:23:17.673Z,-1.28
2023-03-04T01:25:44.210Z,-1.30
2023-03-04T01:28:11.432Z,-1.73
2023-03-04T01:30:38.018Z,-1.49
2023-03-04T01:33:04.610Z,-1.40
2023-03-04T01:35:31.153Z,-1.37
2023-03-04T01:37:57.631Z,-1.68
2023-03-04T01:40:27.322Z,-1.69
2023-03-04T01:42:53.829Z,-1.65
2023-03-04T01:45:21.138Z,-1.52
2023-03-04T01:47:49.474Z,-1.46
2023-03-04T01:50:33.749Z,-1.71
2023-03-04T01:53:01.093Z,-1.82
2023-03-04T01:55:29.626Z,-1.81
2023-03-04T01:57:57.513Z,-1.94
2023-03-04T02:00:27.159Z,-1.83
2023-03-04T02:02:57.428Z,-1.88
2023-03-04T02:05:24.738Z,-2.00
2023-03-04T02:07:52.512Z,-1.78
2023-03-04T02:10:19.221Z,-1.92
2023-03-04T02:12:46.086Z,-1.88
2023-03-04T02:15:13.469Z,-1.86
2023-03-04T02:17:40.183Z,-1.72
2023-03-04T02:20:17.974Z,-1.74
2023-03-04T02:22:54.344Z,-1.78
2023-03-04T02:25:31.753Z,-1.90
2023-03-04T02:27:58.380Z,-1.82
2023-03-04T02:30:28.268Z,-1.77
2023-03-04T02:32:54.836Z,-1.73
2023-03-04T02:35:21.635Z,-1.80
2023-03-04T02:37:48.507Z,-1.82
2023-03-04T02:40:21.137Z,-1.78
2023-03-04T02:42:47.715Z,-1.98
2023-03-04T02:45:50.530Z,-2.04
2023-03-04T02:48:20.316Z,-2.00
2023-03-04T02:50:52.713Z,-2.00
2023-03-04T02:53:20.831Z,-1.94
2023-03-04T02:55:47.982Z,-2.06
2023-03-04T02:58:18.622Z,-2.08
2023-03-04T03:00:45.401Z,-2.16
2023-03-04T03:03:11.933Z,-2.34
2023-03-04T03:05:41.137Z,-2.19
2023-03-04T03:08:07.976Z,-2.42
2023-03-04T03:10:36.679Z,-2.18
2023-03-04T03:13:03.250Z,-2.23
2023-03-04T03:15:29.925Z,-2.41
2023-03-04T03:17:57.210Z,-2.25
2023-03-04T03:20:23.727Z,-2.30
2023-03-04T03:22:50.292Z,-2.35
2023-03-04T03:25:17.431Z,-2.54
2023-03-04T03:27:43.975Z,-2.67
2023-03-04T03:30:12.828Z,-2.55
2023-03-04T03:32:39.309Z,-2.68
2023-03-04T03:35:06.019Z,-2.39
2023-03-04T03:37:32.733Z,-2.57
2023-03-04T03:39:59.393Z,-2.53
2023-03-04T03:42:26.078Z,-2.53
2023-03-04T03:44:52.551Z,-2.65
2023-03-04T03:47:19.180Z,-2.78
2023-03-04T03:49:45.631Z,-2.66
2023-03-04T03:52:14.006Z,-2.70
2023-03-04T03:54:40.473Z,-2.61
2023-03-04T03:57:06.922Z,-2.68
2023-03-04T03:59:33.372Z,-2.83
2023-03-04T04:01:59.990Z,-2.93
2023-03-04T04:04:27.180Z,-2.75
2023-03-04T04:06:53.689Z,-2.84
2023-03-04T04:09:20.361Z,-2.95
2023-03-04T04:11:46.820Z,-2.72
2023-03-04T04:14:14.513Z,-2.82
2023-03-04T04:16:41.161Z,-2.80
2023-03-04T04:19:07.761Z,-2.84
2023-03-04T04:21:34.238Z,-2.81
2023-03-04T04:24:00.689Z,-2.94
2023-03-04T04:26:27.224Z,-3.14
2023-03-04T04:28:53.699Z,-3.01
2023-03-04T04:31:20.283Z,-2.90
2023-03-04T04:33:46.733Z,-3.01
2023-03-04T04:36:15.566Z,-3.09
2023-03-04T04:38:42.129Z,-2.86
2023-03-04T04:41:25.252Z,-2.92
2023-03-04T04:43:54.183Z,-2.87
2023-03-04T04:46:22.460Z,-2.75
2023-03-04T04:48:49.400Z,-2.60
2023-03-04T04:51:16.257Z,-2.68
2023-03-04T04:53:43.108Z,-2.74
2023-03-04T04:56:13.780Z,-2.94
2023-03-04T04:58:40.401Z,-2.92
2023-03-04T05:01:07.347Z,-2.60
2023-03-04T05:03:35.223Z,-2.46
2023-03-04T05:06:01.750Z,-2.42
2023-03-04T05:08:28.552Z,-2.48
2023-03-04T05:10:55.180Z,-2.51
2023-03-04T05:13:21.959Z,-2.63
2023-03-04T05:15:50.778Z,-2.62
2023-03-04T05:18:17.354Z,-2.77
2023-03-04T05:20:44.957Z,-2.66
2023-03-04T05:23:11.368Z,-2.63
2023-03-04T05:25:37.778Z,-2.61
2023-03-04T05:28:04.983Z,-2.61
2023-03-04T05:30:31.382Z,-2.53
2023-03-04T05:32:57.837Z,-2.44
2023-03-04T05:35:24.302Z,-2.41
2023-03-04T05:37:50.807Z,-2.30
2023-03-04T05:40:18.080Z,-2.43
2023-03-04T05:42:45.418Z,-2.65
2023-03-04T05:45:12.006Z,-2.57
2023-03-04T05:47:38.421Z,-2.52
2023-03-04T05:50:05.184Z,-2.47
2023-03-04T05:52:31.592Z,-2.42
2023-03-04T05:54:58.054Z,-2.42
2023-03-04T05:57:24.601Z,-2.34
2023-03-04T05:59:51.070Z,-2.29
2023-03-04T06:02:17.649Z,-2.30
2023-03-04T06:04:44.084Z,-2.28
2023-03-04T06:07:10.616Z,-2.40
2023-03-04T06:09:37.423Z,-2.45
2023-03-04T06:12:04.016Z,-2.18
2023-03-04T06:14:30.735Z,-2.17
2023-03-04T06:16:57.256Z,-2.04
2023-03-04T06:19:23.823Z,-2.16
2023-03-04T06:21:50.334Z,-2.18
2023-03-04T06:24:16.919Z,-2.22
2023-03-04T06:26:43.438Z,-2.05
2023-03-04T06:29:10.289Z,-2.00
2023-03-04T06:31:36.892Z,-2.00
2023-03-04T06:34:04.165Z,-1.86
2023-03-04T06:36:34.678Z,-1.87
2023-03-04T06:39:05.503Z,-1.76
2023-03-04T06:41:32.229Z,-1.69
2023-03-04T06:44:02.357Z,-1.60
2023-03-04T06:46:30.463Z,-1.61
2023-03-04T06:48:57.228Z,-1.51
2023-03-04T06:51:23.717Z,-1.77
2023-03-04T06:53:50.600Z,-1.73
2023-03-04T06:56:17.337Z,-1.63
2023-03-04T06:58:44.607Z,-1.45
2023-03-04T07:01:12.544Z,-1.43
2023-03-04T07:03:39.112Z,-1.34
2023-03-04T07:06:05.808Z,-1.32
2023-03-04T07:08:32.549Z,-1.43
2023-03-04T07:10:59.006Z,-1.33
2023-03-04T07:13:26.548Z,-1.34
2023-03-04T07:15:53.496Z,-1.18
2023-03-04T07:18:20.223Z,-1.14
2023-03-04T07:20:46.696Z,-1.06
2023-03-04T07:23:13.184Z,-1.29
2023-03-04T07:25:44.918Z,-1.10
2023-03-04T07:28:11.420Z,-1.05
2023-03-04T07:30:38.012Z,-0.98
2023-03-04T07:33:04.498Z,-1.04
2023-03-04T07:35:31.047Z,-0.99
2023-03-04T07:37:57.568Z,-1.01
2023-03-04T07:40:24.326Z,-0.98
2023-03-04T07:42:51.850Z,-0.89
2023-03-04T07:45:18.719Z,-0.73
2023-03-04T07:47:45.937Z,-0.86
2023-03-04T07:50:15.851Z,-1.11
2023-03-04T07:52:48.080Z,-0.86
2023-03-04T07:55:15.932Z,-0.76
2023-03-04T07:57:44.453Z,-0.72
2023-03-04T08:00:13.605Z,-0.68
2023-03-04T08:02:40.535Z,-0.59
2023-03-04T08:05:09.493Z,-0.57
2023-03-04T08:07:36.444Z,-0.48
2023-03-04T08:10:04.432Z,-0.42
2023-03-04T08:12:30.972Z,-0.45
2023-03-04T08:14:57.492Z,-0.39
2023-03-04T08:17:29.768Z,-0.25
2023-03-04T08:19:56.356Z,-0.35
2023-03-04T08:22:27.869Z,-0.39
2023-03-04T08:24:54.634Z,-0.37
2023-03-04T08:27:21.111Z,-0.28
2023-03-04T08:29:47.560Z,-0.18
2023-03-04T08:32:14.187Z,-0.14
2023-03-04T08:34:45.949Z,-0.09
2023-03-04T08:37:12.466Z,-0.11
2023-03-04T08:39:39.435Z,-0.09
2023-03-04T08:42:06.989Z,-0.02
2023-03-04T08:44:33.445Z,-0.02
2023-03-04T08:46:59.930Z,-0.11
2023-03-04T08:49:27.411Z,0.09
2023-03-04T08:51:55.957Z,0.13
2023-03-04T08:54:23.474Z,0.18
2023-03-04T08:56:49.955Z,0.11
2023-03-04T08:59:16.423Z,0.12
2023-03-04T09:01:42.950Z,0.08
2023-03-04T09:04:09.546Z,0.12
2023-03-04T09:06:36.127Z,0.19
2023-03-04T09:09:04.071Z,0.27
2023-03-04T09:11:31.309Z,0.24
2023-03-04T09:13:57.908Z,0.29
2023-03-04T09:16:24.518Z,0.32
2023-03-04T09:18:51.008Z,0.25
2023-03-04T09:21:18.678Z,0.52
2023-03-04T09:23:54.262Z,0.65
2023-03-04T09:26:24.929Z,0.78
2023-03-04T09:28:57.280Z,0.77
2023-03-04T09:31:24.942Z,0.76
2023-03-04T09:33:52.913Z,0.75
2023-03-04T09:36:19.702Z,0.57
2023-03-04T09:38:48.461Z,0.70
2023-03-04T09:41:40.167Z,0.81
2023-03-04T09:44:24.507Z,0.87
2023-03-04T09:46:58.965Z,0.89
2023-03-04T09:49:26.532Z,0.98
2023-03-04T09:51:58.304Z,0.97
2023-03-04T09:54:51.286Z,0.96
2023-03-04T09:57:30.063Z,1.09
2023-03-04T10:00:13.778Z,1.13
2023-03-04T10:02:41.329Z,0.95
2023-03-04T10:05:13.278Z,0.85
2023-03-04T10:07:42.914Z,0.97
2023-03-04T10:10:33.880Z,1.27
2023-03-04T10:13:03.025Z,1.17
2023-03-04T10:30:37.637Z,1.64
2023-03-04T10:33:12.285Z,1.48
2023-03-04T10:35:38.874Z,1.55
2023-03-04T10:38:06.920Z,1.65
2023-03-04T10:40:39.198Z,1.62
2023-03-04T10:43:21.591Z,1.69
2023-03-04T10:45:58.689Z,1.76
2023-03-04T10:48:28.946Z,1.81
2023-03-04T10:51:12.451Z,1.73
2023-03-04T10:53:43.111Z,2.00
2023-03-04T10:56:38.969Z,1.86
2023-03-04T10:59:36.482Z,1.69
2023-03-04T11:02:17.505Z,1.75
2023-03-04T11:05:06.639Z,1.73
2023-03-04T11:07:53.983Z,1.69
2023-03-04T11:10:40.866Z,1.82
2023-03-04T11:13:13.382Z,1.94
2023-03-04T11:16:05.132Z,2.08
2023-03-04T11:18:47.065Z,2.01
2023-03-04T11:21:43.228Z,2.00
2023-03-04T11:24:29.389Z,1.98
2023-03-04T11:27:17.618Z,1.91
2023-03-04T11:29:56.720Z,1.93
2023-03-04T11:32:27.912Z,1.92
2023-03-04T11:35:15.833Z,2.14
2023-03-04T11:37:59.769Z,1.89
2023-03-04T11:40:39.012Z,2.06
2023-03-04T11:43:21.705Z,2.10
2023-03-04T11:46:00.684Z,2.13
2023-03-04T11:48:45.153Z,2.13
2023-03-04T11:51:28.909Z,2.18
2023-03-04T11:54:17.224Z,2.31
2023-03-04T11:56:45.740Z,2.25
2023-03-04T11:59:30.836Z,2.28
2023-03-04T12:02:19.445Z,2.20
2023-03-04T12:05:20.280Z,2.16
2023-03-04T12:08:13.499Z,2.18
2023-03-04T12:10:50.929Z,2.34
2023-03-04T12:13:45.340Z,2.43
2023-03-04T12:16:40.634Z,2.34
2023-03-04T12:19:21.237Z,2.19
2023-03-04T12:22:27.292Z,2.21
2023-03-04T12:25:06.457Z,2.32
2023-03-04T12:27:54.059Z,2.53
2023-03-04T12:30:51.726Z,2.66
2023-03-04T12:33:39.976Z,2.51
2023-03-04T12:36:26.453Z,2.47
2023-03-04T12:39:01.566Z,2.48
2023-03-04T12:41:39.682Z,2.51
2023-03-04T12:44:19.347Z,2.63
2023-03-04T12:47:07.019Z,2.68
2023-03-04T12:49:58.237Z,2.87
2023-03-04T12:52:46.229Z,2.68
2023-03-04T12:55:18.277Z,2.69
2023-03-04T12:57:45.633Z,2.73
2023-03-04T13:00:32.098Z,2.50
2023-03-04T13:03:33.723Z,2.62
2023-03-04T13:06:15.230Z,2.84
2023-03-04T13:09:05.583Z,2.73
2023-03-04T13:11:39.705Z,2.65
2023-03-04T13:14:22.277Z,2.68
2023-03-04T13:16:54.212Z,2.90
2023-03-04T13:19:41.710Z,2.84
2023-03-04T13:22:26.830Z,2.91
2023-03-04T13:24:53.721Z,3.01
2023-03-04T13:27:48.755Z,3.01
2023-03-04T13:30:34.463Z,2.89
2023-03-04T13:33:16.346Z,2.81
2023-03-04T13:35:51.793Z,2.81
2023-03-04T13:38:28.350Z,2.89
2023-03-04T13:41:17.848Z,2.97
2023-03-04T13:43:45.416Z,3.00
2023-03-04T13:46:21.119Z,3.10
2023-03-04T13:49:00.348Z,3.05
2023-03-04T13:51:30.018Z,3.08
2023-03-04T13:53:59.742Z,3.11
2023-03-04T13:56:59.236Z,3.30
2023-03-04T13:59:35.104Z,3.04
2023-03-04T14:02:14.924Z,3.12
2023-03-04T14:05:03.409Z,3.10
2023-03-04T14:07:32.435Z,3.04
2023-03-04T14:09:59.049Z,3.12
2023-03-04T14:12:27.727Z,3.06
2023-03-04T14:14:57.537Z,3.23
2023-03-04T14:17:31.194Z,3.09
2023-03-04T14:19:57.824Z,3.11
2023-03-04T14:22:39.285Z,3.29
2023-03-04T14:25:22.917Z,3.18
2023-03-04T14:27:50.193Z,3.35
2023-03-04T14:30:41.405Z,3.23
2023-03-04T14:33:15.888Z,3.21
2023-03-04T14:35:48.109Z,3.23
2023-03-04T14:38:34.902Z,3.26
2023-03-04T14:41:10.242Z,3.18
2023-03-04T14:43:44.781Z,2.83
2023-03-04T14:46:15.087Z,2.98
2023-03-04T14:48:47.557Z,3.20
2023-03-04T14:51:41.682Z,3.19
2023-03-04T14:54:26.766Z,3.08
2023-03-04T14:56:53.228Z,3.04
2023-03-04T14:59:29.185Z,2.93
2023-03-04T15:02:15.042Z,3.05
2023-03-04T15:04:41.944Z,3.06
2023-03-04T15:07:16.473Z,3.00
2023-03-04T15:09:49.744Z,3.09
2023-03-04T15:12:24.537Z,3.07
2023-03-04T15:14:56.764Z,2.95
2023-03-04T15:17:26.368Z,2.94
2023-03-04T15:20:01.584Z,2.81
2023-03-04T15:22:28.107Z,2.85
2023-03-04T15:24:54.534Z,2.79
2023-03-04T15:27:24.381Z,2.92
2023-03-04T15:29:56.049Z,2.86
2023-03-04T15:32:27.164Z,2.82
2023-03-04T15:34:53.720Z,2.80
2023-03-04T15:37:27.104Z,2.89
2023-03-04T15:39:56.852Z,2.86
2023-03-04T15:42:23.866Z,2.87
2023-03-04T15:44:50.572Z,2.80
2023-03-04T15:47:17.354Z,2.69
2023-03-04T15:49:47.425Z,2.80
2023-03-04T15:52:17.741Z,2.69
2023-03-04T15:54:44.900Z,2.80
2023-03-04T15:57:21.512Z,2.80
2023-03-04T15:59:48.005Z,2.96
2023-03-04T16:02:24.684Z,2.86
2023-03-04T16:04:51.149Z,2.57
2023-03-04T16:07:24.476Z,2.61
2023-03-04T16:09:59.598Z,2.65
2023-03-04T16:12:27.664Z,2.43
2023-03-04T16:14:54.335Z,2.54
2023-03-04T16:17:20.865Z,2.77
2023-03-04T16:19:47.563Z,2.69
2023-03-04T16:22:24.469Z,2.60
2023-03-04T16:24:52.144Z,2.52
2023-03-04T16:27:22.253Z,2.59
2023-03-04T16:29:48.659Z,2.54
2023-03-04T16:32:15.179Z,2.48
2023-03-04T16:34:41.693Z,2.59
2023-03-04T16:37:15.824Z,2.53
2023-03-04T16:39:46.094Z,2.69
2023-03-04T16:42:16.202Z,2.55
2023-03-04T16:44:50.219Z,2.67
2023-03-04T16:47:16.890Z,2.54
2023-03-04T16:49:43.372Z,2.65
2023-03-04T16:52:27.453Z,2.62
2023-03-04T16:54:53.874Z,2.39
2023-03-04T16:57:20.313Z,2.36
2023-03-04T16:59:47.604Z,2.59
2023-03-04T17:02:19.784Z,2.60
2023-03-04T17:04:48.464Z,2.56
2023-03-04T17:07:15.401Z,2.48
2023-03-04T17:09:42.454Z,2.57
2023-03-04T17:12:11.893Z,2.49
2023-03-04T17:14:39.336Z,2.62
2023-03-04T17:17:06.892Z,2.46
2023-03-04T17:19:33.640Z,2.45
2023-03-04T17:22:01.418Z,2.50
2023-03-04T17:24:28.217Z,2.48
2023-03-04T17:26:54.802Z,2.36
2023-03-04T17:29:21.302Z,2.38
2023-03-04T17:31:48.018Z,2.40
2023-03-04T17:34:14.714Z,2.47
2023-03-04T17:36:42.501Z,2.18
2023-03-04T17:39:09.131Z,2.44
2023-03-04T17:41:36.930Z,2.33
2023-03-04T17:44:03.748Z,2.19
2023-03-04T17:46:30.236Z,2.34
2023-03-04T17:49:01.865Z,2.25
2023-03-04T17:51:33.539Z,2.30
2023-03-04T17:54:01.330Z,2.18
2023-03-04T17:56:31.423Z,2.31
2023-03-04T17:59:00.491Z,2.48
2023-03-04T18:01:27.427Z,2.29
2023-03-04T18:03:55.308Z,2.30
2023-03-04T18:06:25.328Z,2.20
2023-03-04T18:08:52.961Z,2.33
2023-03-04T18:11:23.397Z,2.23
2023-03-04T18:13:50.008Z,2.35
2023-03-04T18:16:23.053Z,2.39
2023-03-04T18:18:50.890Z,2.42
2023-03-04T18:21:18.484Z,2.46
2023-03-04T18:23:46.941Z,2.40
2023-03-04T18:26:13.624Z,2.44
2023-03-04T18:28:40.186Z,2.25
2023-03-04T18:31:07.120Z,2.33
2023-03-04T18:33:34.325Z,2.29
2023-03-04T18:36:03.598Z,2.19
2023-03-04T18:38:31.245Z,2.52
2023-03-04T18:41:04.403Z,2.17
2023-03-04T18:43:36.181Z,2.17
2023-03-04T18:46:04.192Z,2.30
2023-03-04T18:48:36.634Z,2.39
2023-03-04T18:51:07.644Z,2.20
2023-03-04T18:53:35.083Z,2.22
2023-03-04T18:56:07.963Z,2.27
2023-03-04T18:58:38.755Z,2.16
2023-03-04T19:01:07.721Z,2.27
2023-03-04T19:03:37.585Z,2.60
2023-03-04T19:06:05.822Z,2.46
2023-03-04T19:08:34.908Z,2.32
2023-03-04T19:11:01.591Z,2.35
2023-03-04T19:13:30.525Z,2.05
2023-03-04T19:15:57.317Z,2.30
2023-03-04T19:18:23.912Z,2.07
2023-03-04T19:21:00.722Z,2.20
2023-03-04T19:23:27.566Z,2.26
2023-03-04T19:25:54.008Z,2.14
2023-03-04T19:28:20.537Z,2.25
2023-03-04T19:30:47.205Z,2.39
2023-03-04T19:33:14.753Z,2.26
2023-03-04T19:35:43.408Z,2.01
2023-03-04T19:38:09.956Z,2.13
2023-03-04T19:40:46.726Z,2.15
2023-03-04T19:43:15.062Z,2.19
2023-03-04T19:45:43.699Z,2.08
2023-03-04T19:48:10.207Z,2.25
2023-03-04T19:50:36.621Z,2.30
2023-03-04T19:53:03.099Z,2.21
2023-03-04T19:55:29.561Z,1.96
2023-03-04T19:57:55.984Z,2.16
2023-03-04T20:00:24.078Z,2.15
2023-03-04T20:02:51.101Z,2.27
2023-03-04T20:05:20.270Z,2.18
2023-03-04T20:07:46.745Z,2.25
2023-03-04T20:10:18.824Z,2.13
2023-03-04T20:12:45.545Z,2.16
2023-03-04T20:15:12.055Z,2.39
2023-03-04T20:17:38.680Z,2.23
2023-03-04T20:20:05.720Z,2.06
2023-03-04T20:22:32.397Z,2.03
2023-03-04T20:24:58.961Z,2.19
2023-03-04T20:27:26.527Z,2.18
2023-03-04T20:29:53.565Z,2.33
2023-03-04T20:32:20.088Z,2.36
2023-03-04T20:34:47.952Z,2.10
2023-03-04T20:37:15.984Z,2.31
2023-03-04T20:39:42.412Z,2.24
2023-03-04T20:42:09.387Z,2.23
2023-03-04T20:44:36.034Z,2.27
2023-03-04T20:47:02.566Z,2.24
2023-03-04T20:49:29.806Z,2.29
2023-03-04T20:52:03.033Z,2.46
2023-03-04T20:54:30.849Z,2.33
2023-03-04T20:56:57.527Z,2.25
2023-03-04T20:59:24.406Z,2.32
2023-03-04T21:01:52.563Z,2.28
2023-03-04T21:04:19.852Z,2.28
2023-03-04T21:06:48.391Z,2.24
2023-03-04T21:09:17.943Z,2.05
2023-03-04T21:11:45.143Z,2.15
2023-03-04T21:14:22.211Z,2.27
2023-03-04T21:16:51.293Z,2.31
2023-03-04T21:19:25.213Z,2.28
2023-03-04T21:21:52.288Z,2.30
2023-03-04T21:24:22.053Z,2.29
2023-03-04T21:26:49.010Z,2.43
2023-03-04T21:29:18.048Z,2.03
2023-03-04T21:31:52.197Z,2.09
2023-03-04T21:34:30.501Z,1.96
2023-03-04T21:36:57.037Z,2.07
2023-03-04T21:39:24.846Z,2.21
2023-03-04T21:41:52.686Z,2.14
2023-03-04T21:44:33.334Z,1.98
2023-03-04T21:47:01.888Z,2.06
2023-03-04T21:49:28.629Z,2.30
2023-03-04T21:51:55.289Z,2.20
2023-03-04T21:54:22.064Z,2.33
2023-03-04T21:56:50.179Z,2.29
2023-03-04T21:59:19.645Z,2.15
2023-03-04T22:01:46.277Z,2.00
2023-03-04T22:04:13.249Z,2.16
2023-03-04T22:06:40.876Z,2.19
2023-03-04T22:09:07.824Z,2.20
2023-03-04T22:11:34.591Z,2.30
2023-03-04T22:14:02.706Z,2.33
2023-03-04T22:16:30.254Z,2.28
2023-03-04T22:18:57.892Z,2.29
2023-03-04T22:21:24.472Z,2.10
2023-03-04T22:23:51.059Z,2.36
2023-03-04T22:26:23.222Z,2.21
2023-03-04T22:28:49.635Z,2.16
2023-03-04T22:31:26.298Z,2.19
2023-03-04T22:33:52.761Z,2.03
2023-03-04T22:36:19.247Z,2.24
2023-03-04T22:38:46.780Z,2.28
2023-03-04T22:41:18.196Z,2.21
2023-03-04T22:43:49.803Z,2.39
2023-03-04T22:46:22.510Z,2.33
2023-03-04T22:48:54.155Z,2.49
2023-03-04T22:51:20.967Z,2.42
2023-03-04T22:53:48.969Z,2.41
2023-03-04T22:56:16.146Z,2.41
2023-03-04T22:58:44.352Z,2.36
2023-03-04T23:01:12.240Z,2.33
2023-03-04T23:03:40.394Z,2.28
2023-03-04T23:06:08.321Z,2.22
2023-03-04T23:08:37.386Z,2.31
2023-03-04T23:11:10.334Z,2.09
2023-03-04T23:13:37.980Z,1.91
2023-03-04T23:16:07.943Z,2.12
2023-03-04T23:18:39.275Z,2.02
2023-03-04T23:21:07.736Z,2.22
2023-03-04T23:23:34.454Z,2.23
2023-03-04T23:26:01.675Z,2.21
2023-03-04T23:28:28.485Z,2.29
2023-03-04T23:30:55.143Z,2.35
2023-03-04T23:33:21.593Z,2.23
2023-03-04T23:35:51.197Z,2.21
2023-03-04T23:38:17.597Z,2.30
2023-03-04T23:40:44.060Z,2.27
2023-03-04T23:43:10.548Z,2.21
2023-03-04T23:45:38.018Z,2.27
2023-03-04T23:48:04.788Z,2.31
2023-03-04T23:50:32.198Z,2.16
2023-03-04T23:52:58.713Z,2.18
2023-03-04T23:55:25.248Z,2.32
2023-03-04T23:57:54.066Z,2.28
